sensor_id;sensor_type;location;lat;lon;timestamp;P1;durP1;ratioP1;P2;durP2;ratioP2
78013;SDS011;67222;50.182;8.734;2023-06-24T05:32:57;8.35;;;4.38;;
78013;SDS011;67222;50.182;8.734;2023-06-24T05:35:22;5.80;;;4.43;;
78013;SDS011;67222;50.182;8.734;2023-06-24T05:37:48;8.00;;;4.77;;
78013;SDS011;67222;50.182;8.734;2023-06-24T05:40:13;6.77;;;4.47;;
78013;SDS011;67222;50.182;8.734;2023-06-24T05:42:38;6.53;;;4.28;;
78013;SDS011;67222;50.182;8.734;2023-06-24T05:45:04;6.07;;;4.57;;
78013;SDS011;67222;50.182;8.734;2023-06-24T05:47:31;8.77;;;5.30;;
78013;SDS011;67222;50.182;8.734;2023-06-24T05:49:56;7.50;;;5.40;;
78013;SDS011;67222;50.182;8.734;2023-06-24T05:52:22;7.82;;;5.40;;
78013;SDS011;67222;50.182;8.734;2023-06-24T05:54:47;7.17;;;5.10;;
78013;SDS011;67222;50.182;8.734;2023-06-24T05:57:12;7.57;;;4.90;;
78013;SDS011;67222;50.182;8.734;2023-06-24T05:59:37;7.80;;;5.30;;
78013;SDS011;67222;50.182;8.734;2023-06-24T06:02:03;6.63;;;4.60;;
78013;SDS011;67222;50.182;8.734;2023-06-24T06:04:28;7.37;;;5.47;;
78013;SDS011;67222;50.182;8.734;2023-06-24T06:06:53;10.82;;;5.88;;
78013;SDS011;67222;50.182;8.734;2023-06-24T06:09:19;7.55;;;5.40;;
78013;SDS011;67222;50.182;8.734;2023-06-24T06:11:45;11.32;;;5.05;;
78013;SDS011;67222;50.182;8.734;2023-06-24T06:14:10;8.23;;;5.10;;
78013;SDS011;67222;50.182;8.734;2023-06-24T06:16:35;7.60;;;5.00;;
78013;SDS011;67222;50.182;8.734;2023-06-24T06:19:01;8.00;;;5.25;;
78013;SDS011;67222;50.182;8.734;2023-06-24T06:21:26;7.47;;;5.47;;
78013;SDS011;67222;50.182;8.734;2023-06-24T06:23:51;7.60;;;5.30;;
78013;SDS011;67222;50.182;8.734;2023-06-24T06:26:17;10.00;;;5.83;;
78013;SDS011;67222;50.182;8.734;2023-06-24T06:28:42;6.27;;;5.07;;
78013;SDS011;67222;50.182;8.734;2023-06-24T06:31:07;6.63;;;5.10;;
78013;SDS011;67222;50.182;8.734;2023-06-24T06:33:33;7.80;;;5.90;;
78013;SDS011;67222;50.182;8.734;2023-06-24T06:35:58;6.93;;;5.33;;
78013;SDS011;67222;50.182;8.734;2023-06-24T06:38:23;7.95;;;5.25;;
78013;SDS011;67222;50.182;8.734;2023-06-24T06:40:49;7.80;;;5.65;;
78013;SDS011;67222;50.182;8.734;2023-06-24T06:43:14;8.80;;;5.10;;
78013;SDS011;67222;50.182;8.734;2023-06-24T06:45:40;7.37;;;5.20;;
78013;SDS011;67222;50.182;8.734;2023-06-24T06:48:05;8.70;;;5.57;;
78013;SDS011;67222;50.182;8.734;2023-06-24T06:50:32;7.20;;;5.25;;
78013;SDS011;67222;50.182;8.734;2023-06-24T06:52:59;7.03;;;4.85;;
78013;SDS011;67222;50.182;8.734;2023-06-24T06:55:24;9.43;;;5.65;;
78013;SDS011;67222;50.182;8.734;2023-06-24T06:57:49;7.17;;;5.60;;
78013;SDS011;67222;50.182;8.734;2023-06-24T07:00:15;8.20;;;5.87;;
78013;SDS011;67222;50.182;8.734;2023-06-24T07:02:40;7.65;;;5.55;;
78013;SDS011;67222;50.182;8.734;2023-06-24T07:05:06;7.97;;;5.20;;
78013;SDS011;67222;50.182;8.734;2023-06-24T07:07:31;7.40;;;5.47;;
78013;SDS011;67222;50.182;8.734;2023-06-24T07:09:57;9.02;;;5.97;;
78013;SDS011;67222;50.182;8.734;2023-06-24T07:12:23;7.80;;;5.90;;
78013;SDS011;67222;50.182;8.734;2023-06-24T07:14:48;6.72;;;5.53;;
78013;SDS011;67222;50.182;8.734;2023-06-24T07:17:15;8.90;;;5.80;;
78013;SDS011;67222;50.182;8.734;2023-06-24T07:19:40;8.77;;;5.17;;
78013;SDS011;67222;50.182;8.734;2023-06-24T07:22:05;8.30;;;5.90;;
78013;SDS011;67222;50.182;8.734;2023-06-24T07:24:31;8.35;;;5.75;;
78013;SDS011;67222;50.182;8.734;2023-06-24T07:26:56;7.90;;;5.83;;
78013;SDS011;67222;50.182;8.734;2023-06-24T07:29:21;8.07;;;5.82;;
78013;SDS011;67222;50.182;8.734;2023-06-24T07:31:47;7.77;;;5.20;;
78013;SDS011;67222;50.182;8.734;2023-06-24T07:34:12;7.53;;;5.70;;
78013;SDS011;67222;50.182;8.734;2023-06-24T07:36:37;9.97;;;6.77;;
78013;SDS011;67222;50.182;8.734;2023-06-24T07:39:02;7.03;;;6.07;;
78013;SDS011;67222;50.182;8.734;2023-06-24T07:41:28;12.02;;;5.70;;
78013;SDS011;67222;50.182;8.734;2023-06-24T07:43:53;7.63;;;5.63;;
78013;SDS011;67222;50.182;8.734;2023-06-24T07:46:19;8.68;;;6.00;;
78013;SDS011;67222;50.182;8.734;2023-06-24T07:48:45;6.63;;;5.15;;
78013;SDS011;67222;50.182;8.734;2023-06-24T07:51:10;8.43;;;5.82;;
78013;SDS011;67222;50.182;8.734;2023-06-24T07:53:35;8.33;;;6.53;;
78013;SDS011;67222;50.182;8.734;2023-06-24T07:56:01;7.27;;;5.30;;
78013;SDS011;67222;50.182;8.734;2023-06-24T07:58:26;9.00;;;5.57;;
78013;SDS011;67222;50.182;8.734;2023-06-24T08:00:51;7.57;;;5.65;;
78013;SDS011;67222;50.182;8.734;2023-06-24T08:03:17;9.35;;;6.07;;
78013;SDS011;67222;50.182;8.734;2023-06-24T08:05:42;7.88;;;5.55;;
78013;SDS011;67222;50.182;8.734;2023-06-24T08:08:08;9.20;;;5.85;;
78013;SDS011;67222;50.182;8.734;2023-06-24T08:10:33;9.65;;;5.82;;
78013;SDS011;67222;50.182;8.734;2023-06-24T08:12:59;7.05;;;5.82;;
78013;SDS011;67222;50.182;8.734;2023-06-24T08:15:24;7.05;;;5.25;;
78013;SDS011;67222;50.182;8.734;2023-06-24T08:17:53;7.07;;;4.87;;
78013;SDS011;67222;50.182;8.734;2023-06-24T08:20:22;8.02;;;5.50;;
78013;SDS011;67222;50.182;8.734;2023-06-24T08:22:48;6.68;;;4.72;;
78013;SDS011;67222;50.182;8.734;2023-06-24T08:25:13;7.65;;;4.90;;
78013;SDS011;67222;50.182;8.734;2023-06-24T08:27:39;7.88;;;5.53;;
78013;SDS011;67222;50.182;8.734;2023-06-24T08:30:23;6.00;;;4.82;;
78013;SDS011;67222;50.182;8.734;2023-06-24T08:32:48;6.50;;;5.00;;
78013;SDS011;67222;50.182;8.734;2023-06-24T08:38:26;5.88;;;4.25;;
78013;SDS011;67222;50.182;8.734;2023-06-24T08:40:51;5.57;;;4.37;;
78013;SDS011;67222;50.182;8.734;2023-06-24T08:43:17;7.25;;;4.20;;
78013;SDS011;67222;50.182;8.734;2023-06-24T08:45:42;5.10;;;4.03;;
78013;SDS011;67222;50.182;8.734;2023-06-24T08:51:10;6.95;;;4.13;;
78013;SDS011;67222;50.182;8.734;2023-06-24T08:53:38;5.47;;;4.00;;
78013;SDS011;67222;50.182;8.734;2023-06-24T08:56:07;7.50;;;4.97;;
78013;SDS011;67222;50.182;8.734;2023-06-24T08:58:33;5.55;;;4.28;;
78013;SDS011;67222;50.182;8.734;2023-06-24T09:00:58;6.68;;;4.15;;
78013;SDS011;67222;50.182;8.734;2023-06-24T09:03:25;7.53;;;4.30;;
78013;SDS011;67222;50.182;8.734;2023-06-24T10:10:30;4.88;;;3.80;;
78013;SDS011;67222;50.182;8.734;2023-06-24T10:12:55;5.82;;;3.47;;
78013;SDS011;67222;50.182;8.734;2023-06-24T10:15:21;4.10;;;3.17;;
78013;SDS011;67222;50.182;8.734;2023-06-24T10:17:47;5.95;;;2.88;;
78013;SDS011;67222;50.182;8.734;2023-06-24T10:20:13;4.60;;;3.13;;
78013;SDS011;67222;50.182;8.734;2023-06-24T10:22:48;5.30;;;3.28;;
78013;SDS011;67222;50.182;8.734;2023-06-24T10:25:16;5.35;;;3.95;;
78013;SDS011;67222;50.182;8.734;2023-06-24T10:27:41;7.57;;;3.55;;
78013;SDS011;67222;50.182;8.734;2023-06-24T10:30:07;4.78;;;3.47;;
78013;SDS011;67222;50.182;8.734;2023-06-24T10:32:42;5.50;;;3.83;;
78013;SDS011;67222;50.182;8.734;2023-06-24T10:35:21;5.90;;;3.72;;
78013;SDS011;67222;50.182;8.734;2023-06-24T10:37:55;6.00;;;3.00;;
78013;SDS011;67222;50.182;8.734;2023-06-24T10:40:35;4.88;;;3.50;;
78013;SDS011;67222;50.182;8.734;2023-06-24T10:43:23;5.07;;;3.28;;
78013;SDS011;67222;50.182;8.734;2023-06-24T10:45:51;5.30;;;3.22;;
78013;SDS011;67222;50.182;8.734;2023-06-24T10:48:17;4.72;;;3.30;;
78013;SDS011;67222;50.182;8.734;2023-06-24T10:50:47;4.57;;;3.45;;
78013;SDS011;67222;50.182;8.734;2023-06-24T10:53:14;4.50;;;3.20;;
78013;SDS011;67222;50.182;8.734;2023-06-24T10:55:40;3.97;;;3.20;;
78013;SDS011;67222;50.182;8.734;2023-06-24T10:58:12;5.68;;;3.33;;
78013;SDS011;67222;50.182;8.734;2023-06-24T11:00:39;4.88;;;3.33;;
78013;SDS011;67222;50.182;8.734;2023-06-24T11:03:12;5.57;;;3.80;;
78013;SDS011;67222;50.182;8.734;2023-06-24T11:05:42;5.00;;;3.38;;
78013;SDS011;67222;50.182;8.734;2023-06-24T11:08:10;4.97;;;3.20;;
78013;SDS011;67222;50.182;8.734;2023-06-24T11:10:45;6.88;;;3.30;;
78013;SDS011;67222;50.182;8.734;2023-06-24T11:13:12;5.13;;;3.40;;
78013;SDS011;67222;50.182;8.734;2023-06-24T11:15:38;5.80;;;3.65;;
78013;SDS011;67222;50.182;8.734;2023-06-24T11:20:32;4.95;;;3.42;;
78013;SDS011;67222;50.182;8.734;2023-06-24T11:22:57;5.60;;;4.15;;
78013;SDS011;67222;50.182;8.734;2023-06-24T11:25:23;5.53;;;3.90;;
78013;SDS011;67222;50.182;8.734;2023-06-24T11:27:51;5.77;;;3.93;;
78013;SDS011;67222;50.182;8.734;2023-06-24T11:30:19;5.28;;;3.60;;
78013;SDS011;67222;50.182;8.734;2023-06-24T11:32:45;7.75;;;3.67;;
78013;SDS011;67222;50.182;8.734;2023-06-24T11:35:12;5.40;;;3.42;;
78013;SDS011;67222;50.182;8.734;2023-06-24T11:37:42;4.32;;;3.60;;
78013;SDS011;67222;50.182;8.734;2023-06-24T11:40:09;5.75;;;3.50;;
78013;SDS011;67222;50.182;8.734;2023-06-24T11:42:39;5.50;;;3.28;;
78013;SDS011;67222;50.182;8.734;2023-06-24T11:45:06;6.93;;;3.60;;
78013;SDS011;67222;50.182;8.734;2023-06-24T11:47:32;4.63;;;3.65;;
78013;SDS011;67222;50.182;8.734;2023-06-24T11:49:59;4.63;;;3.13;;
78013;SDS011;67222;50.182;8.734;2023-06-24T11:55:13;4.50;;;3.40;;
78013;SDS011;67222;50.182;8.734;2023-06-24T11:57:51;7.22;;;3.60;;
78013;SDS011;67222;50.182;8.734;2023-06-24T12:00:25;5.68;;;3.67;;
78013;SDS011;67222;50.182;8.734;2023-06-24T12:03:10;3.97;;;3.47;;
78013;SDS011;67222;50.182;8.734;2023-06-24T12:05:36;4.97;;;3.80;;
78013;SDS011;67222;50.182;8.734;2023-06-24T12:08:05;5.72;;;3.85;;
78013;SDS011;67222;50.182;8.734;2023-06-24T12:10:32;6.60;;;3.88;;
78013;SDS011;67222;50.182;8.734;2023-06-24T12:12:59;10.05;;;4.20;;
78013;SDS011;67222;50.182;8.734;2023-06-24T12:15:25;4.95;;;3.58;;
78013;SDS011;67222;50.182;8.734;2023-06-24T12:17:51;4.70;;;3.65;;
78013;SDS011;67222;50.182;8.734;2023-06-24T12:20:17;4.30;;;3.60;;
78013;SDS011;67222;50.182;8.734;2023-06-24T12:22:43;5.18;;;3.60;;
78013;SDS011;67222;50.182;8.734;2023-06-24T12:25:10;5.00;;;3.78;;
78013;SDS011;67222;50.182;8.734;2023-06-24T12:27:35;4.72;;;3.42;;
78013;SDS011;67222;50.182;8.734;2023-06-24T12:30:01;5.25;;;3.75;;
78013;SDS011;67222;50.182;8.734;2023-06-24T12:32:27;5.28;;;3.88;;
78013;SDS011;67222;50.182;8.734;2023-06-24T12:34:52;4.32;;;3.40;;
78013;SDS011;67222;50.182;8.734;2023-06-24T12:37:18;4.90;;;3.30;;
78013;SDS011;67222;50.182;8.734;2023-06-24T12:39:44;4.50;;;3.60;;
78013;SDS011;67222;50.182;8.734;2023-06-24T12:42:10;4.90;;;3.75;;
78013;SDS011;67222;50.182;8.734;2023-06-24T12:44:35;5.55;;;3.55;;
78013;SDS011;67222;50.182;8.734;2023-06-24T12:47:00;5.83;;;4.10;;
78013;SDS011;67222;50.182;8.734;2023-06-24T12:49:26;4.60;;;3.77;;
78013;SDS011;67222;50.182;8.734;2023-06-24T12:51:51;6.32;;;3.67;;
78013;SDS011;67222;50.182;8.734;2023-06-24T12:54:17;4.90;;;3.90;;
78013;SDS011;67222;50.182;8.734;2023-06-24T12:56:42;4.55;;;3.70;;
78013;SDS011;67222;50.182;8.734;2023-06-24T12:59:08;4.80;;;3.87;;
78013;SDS011;67222;50.182;8.734;2023-06-24T13:01:33;5.38;;;4.05;;
78013;SDS011;67222;50.182;8.734;2023-06-24T13:03:59;5.13;;;3.57;;
78013;SDS011;67222;50.182;8.734;2023-06-24T13:06:24;5.72;;;3.88;;
78013;SDS011;67222;50.182;8.734;2023-06-24T13:08:49;5.45;;;4.00;;
78013;SDS011;67222;50.182;8.734;2023-06-24T13:11:15;6.30;;;3.85;;
78013;SDS011;67222;50.182;8.734;2023-06-24T13:13:40;4.83;;;3.50;;
78013;SDS011;67222;50.182;8.734;2023-06-24T13:16:05;4.93;;;3.60;;
78013;SDS011;67222;50.182;8.734;2023-06-24T13:18:31;5.70;;;3.63;;
78013;SDS011;67222;50.182;8.734;2023-06-24T13:20:56;5.32;;;4.00;;
78013;SDS011;67222;50.182;8.734;2023-06-24T13:23:21;6.37;;;3.70;;
78013;SDS011;67222;50.182;8.734;2023-06-24T13:25:47;4.28;;;3.42;;
78013;SDS011;67222;50.182;8.734;2023-06-24T13:28:12;7.73;;;3.80;;
78013;SDS011;67222;50.182;8.734;2023-06-24T13:30:38;4.43;;;3.55;;
78013;SDS011;67222;50.182;8.734;2023-06-24T13:33:03;4.13;;;2.83;;
78013;SDS011;67222;50.182;8.734;2023-06-24T13:35:29;4.78;;;3.60;;
78013;SDS011;67222;50.182;8.734;2023-06-24T13:37:54;4.27;;;3.77;;
78013;SDS011;67222;50.182;8.734;2023-06-24T13:40:19;3.60;;;3.10;;
78013;SDS011;67222;50.182;8.734;2023-06-24T13:42:44;4.53;;;3.42;;
78013;SDS011;67222;50.182;8.734;2023-06-24T13:45:10;4.57;;;3.47;;
78013;SDS011;67222;50.182;8.734;2023-06-24T13:47:35;7.37;;;4.00;;
78013;SDS011;67222;50.182;8.734;2023-06-24T13:50:02;4.43;;;3.67;;
78013;SDS011;67222;50.182;8.734;2023-06-24T13:52:28;5.28;;;4.20;;
78013;SDS011;67222;50.182;8.734;2023-06-24T13:54:53;5.28;;;3.90;;
78013;SDS011;67222;50.182;8.734;2023-06-24T13:57:18;4.65;;;3.53;;
78013;SDS011;67222;50.182;8.734;2023-06-24T13:59:44;5.03;;;3.88;;
78013;SDS011;67222;50.182;8.734;2023-06-24T14:02:09;5.63;;;3.97;;
78013;SDS011;67222;50.182;8.734;2023-06-24T14:04:36;4.25;;;3.60;;
78013;SDS011;67222;50.182;8.734;2023-06-24T14:07:01;5.45;;;3.83;;
78013;SDS011;67222;50.182;8.734;2023-06-24T14:09:27;5.50;;;3.63;;
78013;SDS011;67222;50.182;8.734;2023-06-24T14:11:53;5.43;;;3.70;;
78013;SDS011;67222;50.182;8.734;2023-06-24T14:14:20;5.53;;;3.92;;
78013;SDS011;67222;50.182;8.734;2023-06-24T14:16:46;5.20;;;3.78;;
78013;SDS011;67222;50.182;8.734;2023-06-24T14:19:11;5.68;;;3.65;;
78013;SDS011;67222;50.182;8.734;2023-06-24T14:21:36;5.10;;;3.87;;
78013;SDS011;67222;50.182;8.734;2023-06-24T14:24:03;5.68;;;3.95;;
78013;SDS011;67222;50.182;8.734;2023-06-24T14:26:29;4.75;;;3.58;;
78013;SDS011;67222;50.182;8.734;2023-06-24T14:28:54;5.00;;;3.73;;
78013;SDS011;67222;50.182;8.734;2023-06-24T14:31:20;11.47;;;5.17;;
78013;SDS011;67222;50.182;8.734;2023-06-24T14:33:45;5.83;;;4.23;;
78013;SDS011;67222;50.182;8.734;2023-06-24T14:36:10;6.03;;;4.20;;
78013;SDS011;67222;50.182;8.734;2023-06-24T14:38:35;4.87;;;3.70;;
78013;SDS011;67222;50.182;8.734;2023-06-24T14:41:01;5.57;;;4.40;;
78013;SDS011;67222;50.182;8.734;2023-06-24T14:43:26;5.15;;;4.00;;
78013;SDS011;67222;50.182;8.734;2023-06-24T14:45:51;5.93;;;3.80;;
78013;SDS011;67222;50.182;8.734;2023-06-24T14:48:17;5.50;;;4.23;;
78013;SDS011;67222;50.182;8.734;2023-06-24T14:50:42;5.57;;;4.07;;
78013;SDS011;67222;50.182;8.734;2023-06-24T14:53:07;5.17;;;4.20;;
78013;SDS011;67222;50.182;8.734;2023-06-24T14:55:33;4.33;;;3.70;;
78013;SDS011;67222;50.182;8.734;2023-06-24T14:57:58;5.80;;;4.20;;
78013;SDS011;67222;50.182;8.734;2023-06-24T15:00:23;5.65;;;4.00;;
78013;SDS011;67222;50.182;8.734;2023-06-24T15:02:49;4.25;;;3.45;;
78013;SDS011;67222;50.182;8.734;2023-06-24T15:05:14;4.07;;;3.47;;
78013;SDS011;67222;50.182;8.734;2023-06-24T15:07:39;4.77;;;3.40;;
78013;SDS011;67222;50.182;8.734;2023-06-24T15:10:05;4.67;;;4.17;;
78013;SDS011;67222;50.182;8.734;2023-06-24T15:12:31;4.45;;;3.63;;
78013;SDS011;67222;50.182;8.734;2023-06-24T15:14:56;4.85;;;3.90;;
78013;SDS011;67222;50.182;8.734;2023-06-24T15:17:21;5.23;;;3.80;;
78013;SDS011;67222;50.182;8.734;2023-06-24T15:19:48;5.05;;;3.50;;
78013;SDS011;67222;50.182;8.734;2023-06-24T15:22:13;4.60;;;4.00;;
78013;SDS011;67222;50.182;8.734;2023-06-24T15:24:38;5.10;;;3.73;;
78013;SDS011;67222;50.182;8.734;2023-06-24T15:27:04;6.00;;;4.43;;
78013;SDS011;67222;50.182;8.734;2023-06-24T15:29:29;6.40;;;4.20;;
78013;SDS011;67222;50.182;8.734;2023-06-24T15:31:54;5.63;;;3.97;;
78013;SDS011;67222;50.182;8.734;2023-06-24T15:34:19;5.47;;;4.07;;
78013;SDS011;67222;50.182;8.734;2023-06-24T15:36:45;6.40;;;4.20;;
78013;SDS011;67222;50.182;8.734;2023-06-24T15:39:11;4.75;;;3.58;;
78013;SDS011;67222;50.182;8.734;2023-06-24T15:41:37;5.55;;;4.18;;
78013;SDS011;67222;50.182;8.734;2023-06-24T15:44:06;4.72;;;3.80;;
78013;SDS011;67222;50.182;8.734;2023-06-24T15:46:31;6.25;;;3.78;;
78013;SDS011;67222;50.182;8.734;2023-06-24T15:48:56;5.13;;;3.83;;
78013;SDS011;67222;50.182;8.734;2023-06-24T15:51:22;6.30;;;3.80;;
78013;SDS011;67222;50.182;8.734;2023-06-24T15:53:47;6.63;;;3.97;;
78013;SDS011;67222;50.182;8.734;2023-06-24T15:56:12;6.88;;;3.70;;
78013;SDS011;67222;50.182;8.734;2023-06-24T15:58:38;6.37;;;4.03;;
78013;SDS011;67222;50.182;8.734;2023-06-24T16:01:03;5.23;;;4.00;;
78013;SDS011;67222;50.182;8.734;2023-06-24T16:03:28;5.27;;;4.20;;
78013;SDS011;67222;50.182;8.734;2023-06-24T16:05:53;4.90;;;3.70;;
78013;SDS011;67222;50.182;8.734;2023-06-24T16:08:19;5.07;;;3.97;;
78013;SDS011;67222;50.182;8.734;2023-06-24T16:10:44;4.80;;;3.70;;
78013;SDS011;67222;50.182;8.734;2023-06-24T16:13:11;5.38;;;3.60;;
78013;SDS011;67222;50.182;8.734;2023-06-24T16:15:37;4.32;;;3.60;;
78013;SDS011;67222;50.182;8.734;2023-06-24T16:18:03;4.30;;;3.67;;
78013;SDS011;67222;50.182;8.734;2023-06-24T16:20:28;4.47;;;3.60;;
78013;SDS011;67222;50.182;8.734;2023-06-24T16:22:53;4.50;;;3.33;;
78013;SDS011;67222;50.182;8.734;2023-06-24T16:25:19;5.13;;;3.63;;
78013;SDS011;67222;50.182;8.734;2023-06-24T16:27:44;4.73;;;3.70;;
78013;SDS011;67222;50.182;8.734;2023-06-24T16:30:10;6.57;;;4.18;;
78013;SDS011;67222;50.182;8.734;2023-06-24T16:32:35;4.97;;;3.97;;
78013;SDS011;67222;50.182;8.734;2023-06-24T16:35:01;6.27;;;3.93;;
78013;SDS011;67222;50.182;8.734;2023-06-24T16:37:26;5.43;;;3.70;;
78013;SDS011;67222;50.182;8.734;2023-06-24T16:39:52;5.90;;;3.90;;
78013;SDS011;67222;50.182;8.734;2023-06-24T16:42:17;4.73;;;3.63;;
78013;SDS011;67222;50.182;8.734;2023-06-24T16:44:42;5.50;;;3.80;;
78013;SDS011;67222;50.182;8.734;2023-06-24T16:47:11;5.50;;;4.28;;
78013;SDS011;67222;50.182;8.734;2023-06-24T16:49:37;5.50;;;4.00;;
78013;SDS011;67222;50.182;8.734;2023-06-24T16:52:02;6.17;;;4.00;;
78013;SDS011;67222;50.182;8.734;2023-06-24T16:54:27;6.35;;;4.10;;
78013;SDS011;67222;50.182;8.734;2023-06-24T16:56:53;4.90;;;3.80;;
78013;SDS011;67222;50.182;8.734;2023-06-24T16:59:18;5.35;;;3.47;;
78013;SDS011;67222;50.182;8.734;2023-06-24T17:01:43;6.67;;;4.10;;
78013;SDS011;67222;50.182;8.734;2023-06-24T17:04:09;4.77;;;3.80;;
78013;SDS011;67222;50.182;8.734;2023-06-24T17:06:34;5.63;;;3.90;;
78013;SDS011;67222;50.182;8.734;2023-06-24T17:09:00;4.28;;;3.33;;
78013;SDS011;67222;50.182;8.734;2023-06-24T17:11:25;5.15;;;4.18;;
78013;SDS011;67222;50.182;8.734;2023-06-24T17:13:51;4.60;;;3.80;;
78013;SDS011;67222;50.182;8.734;2023-06-24T17:16:16;7.55;;;4.28;;
78013;SDS011;67222;50.182;8.734;2023-06-24T17:18:42;5.05;;;4.05;;
78013;SDS011;67222;50.182;8.734;2023-06-24T17:21:07;5.40;;;3.65;;
78013;SDS011;67222;50.182;8.734;2023-06-24T17:23:32;4.65;;;3.50;;
78013;SDS011;67222;50.182;8.734;2023-06-24T17:25:58;5.07;;;3.60;;
78013;SDS011;67222;50.182;8.734;2023-06-24T17:28:23;5.03;;;3.57;;
78013;SDS011;67222;50.182;8.734;2023-06-24T17:30:48;4.22;;;3.58;;
78013;SDS011;67222;50.182;8.734;2023-06-24T17:33:14;5.67;;;3.80;;
78013;SDS011;67222;50.182;8.734;2023-06-24T17:35:39;4.70;;;3.70;;
78013;SDS011;67222;50.182;8.734;2023-06-24T17:38:04;4.93;;;3.77;;
78013;SDS011;67222;50.182;8.734;2023-06-24T17:40:30;4.47;;;3.83;;
78013;SDS011;67222;50.182;8.734;2023-06-24T17:42:55;4.37;;;3.50;;
78013;SDS011;67222;50.182;8.734;2023-06-24T17:45:21;4.50;;;3.72;;
78013;SDS011;67222;50.182;8.734;2023-06-24T17:47:47;4.75;;;3.65;;
78013;SDS011;67222;50.182;8.734;2023-06-24T17:50:12;4.53;;;3.70;;
78013;SDS011;67222;50.182;8.734;2023-06-24T17:52:38;5.27;;;4.13;;
78013;SDS011;67222;50.182;8.734;2023-06-24T17:55:03;5.47;;;3.70;;
78013;SDS011;67222;50.182;8.734;2023-06-24T17:57:29;5.15;;;3.70;;
78013;SDS011;67222;50.182;8.734;2023-06-24T17:59:54;4.30;;;3.50;;
78013;SDS011;67222;50.182;8.734;2023-06-24T18:02:20;4.30;;;3.53;;
78013;SDS011;67222;50.182;8.734;2023-06-24T18:04:45;5.93;;;3.65;;
78013;SDS011;67222;50.182;8.734;2023-06-24T18:07:10;4.63;;;3.50;;
78013;SDS011;67222;50.182;8.734;2023-06-24T18:09:36;5.03;;;3.63;;
78013;SDS011;67222;50.182;8.734;2023-06-24T18:12:01;6.70;;;3.80;;
78013;SDS011;67222;50.182;8.734;2023-06-24T18:14:26;4.80;;;3.85;;
78013;SDS011;67222;50.182;8.734;2023-06-24T18:16:51;4.63;;;3.73;;
78013;SDS011;67222;50.182;8.734;2023-06-24T18:19:18;6.10;;;4.00;;
78013;SDS011;67222;50.182;8.734;2023-06-24T18:21:44;5.93;;;3.92;;
78013;SDS011;67222;50.182;8.734;2023-06-24T18:24:09;6.32;;;4.10;;
78013;SDS011;67222;50.182;8.734;2023-06-24T18:26:35;4.93;;;3.38;;
78013;SDS011;67222;50.182;8.734;2023-06-24T18:29:01;5.00;;;3.38;;
78013;SDS011;67222;50.182;8.734;2023-06-24T18:31:26;5.00;;;3.67;;
78013;SDS011;67222;50.182;8.734;2023-06-24T18:33:52;4.82;;;3.65;;
78013;SDS011;67222;50.182;8.734;2023-06-24T18:36:17;5.47;;;3.60;;
78013;SDS011;67222;50.182;8.734;2023-06-24T18:38:43;8.25;;;4.22;;
78013;SDS011;67222;50.182;8.734;2023-06-24T18:41:08;6.60;;;3.60;;
78013;SDS011;67222;50.182;8.734;2023-06-24T18:43:34;4.53;;;3.33;;
78013;SDS011;67222;50.182;8.734;2023-06-24T18:45:59;4.23;;;3.20;;
78013;SDS011;67222;50.182;8.734;2023-06-24T18:48:24;5.03;;;3.70;;
78013;SDS011;67222;50.182;8.734;2023-06-24T18:50:50;5.17;;;3.50;;
78013;SDS011;67222;50.182;8.734;2023-06-24T18:53:15;5.20;;;3.50;;
78013;SDS011;67222;50.182;8.734;2023-06-24T18:55:40;4.33;;;3.40;;
78013;SDS011;67222;50.182;8.734;2023-06-24T18:58:06;5.23;;;3.57;;
78013;SDS011;67222;50.182;8.734;2023-06-24T19:00:32;6.07;;;3.42;;
78013;SDS011;67222;50.182;8.734;2023-06-24T19:02:58;6.85;;;3.50;;
78013;SDS011;67222;50.182;8.734;2023-06-24T19:05:23;4.73;;;3.60;;
78013;SDS011;67222;50.182;8.734;2023-06-24T19:07:49;4.53;;;3.43;;
78013;SDS011;67222;50.182;8.734;2023-06-24T19:10:14;5.17;;;3.50;;
78013;SDS011;67222;50.182;8.734;2023-06-24T19:12:40;5.63;;;3.75;;
78013;SDS011;67222;50.182;8.734;2023-06-24T19:15:06;5.63;;;3.43;;
78013;SDS011;67222;50.182;8.734;2023-06-24T19:17:32;5.40;;;3.85;;
78013;SDS011;67222;50.182;8.734;2023-06-24T19:19:57;6.00;;;3.90;;
78013;SDS011;67222;50.182;8.734;2023-06-24T19:22:22;5.00;;;3.50;;
78013;SDS011;67222;50.182;8.734;2023-06-24T19:24:47;7.27;;;3.70;;
78013;SDS011;67222;50.182;8.734;2023-06-24T19:27:13;6.03;;;4.50;;
78013;SDS011;67222;50.182;8.734;2023-06-24T19:29:38;7.23;;;4.60;;
78013;SDS011;67222;50.182;8.734;2023-06-24T19:32:03;6.50;;;4.07;;
78013;SDS011;67222;50.182;8.734;2023-06-24T19:34:29;4.90;;;4.05;;
78013;SDS011;67222;50.182;8.734;2023-06-24T19:36:54;5.17;;;4.23;;
78013;SDS011;67222;50.182;8.734;2023-06-24T19:39:20;6.00;;;4.50;;
78013;SDS011;67222;50.182;8.734;2023-06-24T19:41:45;6.32;;;4.10;;
78013;SDS011;67222;50.182;8.734;2023-06-24T19:44:10;5.43;;;4.47;;
78013;SDS011;67222;50.182;8.734;2023-06-24T19:46:36;5.18;;;4.07;;
78013;SDS011;67222;50.182;8.734;2023-06-24T19:49:01;6.17;;;4.53;;
78013;SDS011;67222;50.182;8.734;2023-06-24T19:51:27;6.43;;;3.97;;
78013;SDS011;67222;50.182;8.734;2023-06-24T19:53:56;5.50;;;4.00;;
78013;SDS011;67222;50.182;8.734;2023-06-24T19:56:22;6.20;;;4.03;;
78013;SDS011;67222;50.182;8.734;2023-06-24T19:58:47;6.10;;;4.47;;
78013;SDS011;67222;50.182;8.734;2023-06-24T20:01:12;5.97;;;4.23;;
78013;SDS011;67222;50.182;8.734;2023-06-24T20:03:38;5.37;;;4.00;;
78013;SDS011;67222;50.182;8.734;2023-06-24T20:06:03;4.97;;;4.00;;
78013;SDS011;67222;50.182;8.734;2023-06-24T20:08:28;5.32;;;4.00;;
78013;SDS011;67222;50.182;8.734;2023-06-24T20:10:54;7.30;;;4.70;;
78013;SDS011;67222;50.182;8.734;2023-06-24T20:13:19;5.80;;;4.50;;
78013;SDS011;67222;50.182;8.734;2023-06-24T20:15:44;5.50;;;4.40;;
78013;SDS011;67222;50.182;8.734;2023-06-24T20:18:10;5.70;;;4.40;;
78013;SDS011;67222;50.182;8.734;2023-06-24T20:20:36;6.60;;;4.78;;
78013;SDS011;67222;50.182;8.734;2023-06-24T20:23:01;6.75;;;4.85;;
78013;SDS011;67222;50.182;8.734;2023-06-24T20:25:27;6.82;;;4.75;;
78013;SDS011;67222;50.182;8.734;2023-06-24T20:27:52;5.72;;;4.70;;
78013;SDS011;67222;50.182;8.734;2023-06-24T20:30:17;5.90;;;4.27;;
78013;SDS011;67222;50.182;8.734;2023-06-24T20:32:42;6.03;;;4.00;;
78013;SDS011;67222;50.182;8.734;2023-06-24T20:35:08;6.90;;;4.50;;
78013;SDS011;67222;50.182;8.734;2023-06-24T20:37:33;6.28;;;3.67;;
78013;SDS011;67222;50.182;8.734;2023-06-24T20:39:58;5.53;;;4.23;;
78013;SDS011;67222;50.182;8.734;2023-06-24T20:42:24;5.43;;;3.73;;
78013;SDS011;67222;50.182;8.734;2023-06-24T20:44:49;5.53;;;4.10;;
78013;SDS011;67222;50.182;8.734;2023-06-24T20:47:14;6.88;;;4.18;;
78013;SDS011;67222;50.182;8.734;2023-06-24T20:49:40;5.83;;;4.10;;
78013;SDS011;67222;50.182;8.734;2023-06-24T20:52:05;6.60;;;4.47;;
78013;SDS011;67222;50.182;8.734;2023-06-24T20:54:31;6.00;;;4.05;;
78013;SDS011;67222;50.182;8.734;2023-06-24T20:56:56;5.20;;;4.38;;
78013;SDS011;67222;50.182;8.734;2023-06-24T20:59:22;6.20;;;4.47;;
78013;SDS011;67222;50.182;8.734;2023-06-24T21:01:47;6.20;;;4.38;;
78013;SDS011;67222;50.182;8.734;2023-06-24T21:04:12;8.20;;;5.10;;
78013;SDS011;67222;50.182;8.734;2023-06-24T21:06:38;7.80;;;4.95;;
78013;SDS011;67222;50.182;8.734;2023-06-24T21:09:03;5.50;;;4.80;;
78013;SDS011;67222;50.182;8.734;2023-06-24T21:11:28;6.50;;;4.90;;
78013;SDS011;67222;50.182;8.734;2023-06-24T21:13:54;6.27;;;4.70;;
78013;SDS011;67222;50.182;8.734;2023-06-24T21:16:19;6.85;;;4.75;;
78013;SDS011;67222;50.182;8.734;2023-06-24T21:18:44;6.05;;;4.95;;
78013;SDS011;67222;50.182;8.734;2023-06-24T21:21:10;8.30;;;5.10;;
78013;SDS011;67222;50.182;8.734;2023-06-24T21:23:35;7.45;;;5.45;;
78013;SDS011;67222;50.182;8.734;2023-06-24T21:26:00;6.70;;;5.00;;
78013;SDS011;67222;50.182;8.734;2023-06-24T21:28:25;8.83;;;6.20;;